Sagehen Creek Weather observations

Data are for observation ending at time listed.
 Day   Time    Ave.   Ave.  Ave.  Vector   Max.   Stn.    Total    Solar   Ave.  
  of    of     Air    Rel.  Wind   Wind    Wind   Baro.  Precip.   Rad.    Soil  
Year   Day     Temp.  Hum.  Speed  Dir.    Gust   Pres.                    Temp. 
2014   (PST)    F      %     mph   deg.    mph     mb.     in.     W/m2     F   
------------------------------------------------------------------------------
 108   12:10   59.8    38    2.1    85      5.8   833.6    8.46     433    999.0
 108   12:20   58.3    38    1.1   320      2.4   833.6    8.46     399    999.0
 108   12:30   61.5    36    1.1   230      3.5   833.7    8.46     978    999.0
 108   12:40   62.7    32    2.1   180      5.0   833.3    8.46     871    999.0
 108   12:50   62.6    30    1.7   217      4.4   833.2    8.46     423    999.0
 108   13:00   60.4    32    1.4   212      4.3   833.1    8.46     349    999.0
 108   13:10   59.9    32    1.6   188      3.9   833.3    8.46     341    999.0
 108   13:20   60.8    31    2.4   158      5.5   833.2    8.46     729    999.0
 108   13:30   62.3    31    2.3   234      5.9   833.1    8.46     637    999.0
 108   13:40   62.7    30    1.5   246      3.9   833.2    8.46     367    999.0
 108   13:50   61.5    32    1.1   245      4.2   833.0    8.46     345    999.0
 108   14:00   62.8    31    1.6   336      5.4   832.9    8.46     819    999.0
 108   14:10   63.0    28    2.2   275      5.0   833.1    8.46     284    999.0
 108   14:20   60.9    31    1.2   249      2.9   832.9    8.46     204    999.0
 108   14:30   60.7    31    0.6   195      2.5   832.8    8.46     187    999.0
 108   14:40   60.7    34    0.6    32      1.9   832.9    8.46     176    999.0
 108   14:50   61.7    36    1.4   337      5.2   832.8    8.46     671    999.0
 108   15:00   62.4    33    1.8    26      5.3   832.7    8.46     428    999.0
 108   15:10   62.3    32    2.3    54      4.7   832.5    8.46     454    999.0
 108   15:20   62.4    33    2.3   185      5.6   832.6    8.46     612    999.0
 108   15:30   62.2    38    2.4   250      4.9   832.7    8.46     457    999.0
 108   15:40   62.9    39    2.5   265      5.5   832.9    8.46     614    999.0
 108   15:50   63.1    40    2.7   255      9.6   832.9    8.46     424    999.0
 108   16:00   58.8    47    2.7   270      6.2   832.9    8.46     218    999.0
 108   16:10   58.7    48    2.7   274      5.1   833.2    8.46     535    999.0
 108   16:20   59.8    46    2.3   280      5.8   833.0    8.46     424    999.0
 108   16:30   58.2    49    1.9   225      6.8   832.9    8.47     126    999.0
 108   16:40   55.6    54    2.2   233      6.5   833.1    8.47      87    999.0
 108   16:50   54.2    54    1.8   237      7.1   833.2    8.47      71    999.0
 108   17:00   53.7    54    0.7   291      3.7   833.3    8.47      46    999.0
 108   17:10   53.7    54    0.4   229      1.9   833.2    8.47      25    999.0
 108   17:20   53.5    54    0.2   254      1.8   833.2    8.47      33    999.0
 108   17:30   53.7    54    0.6   334      2.2   833.2    8.47      86    999.0
 108   17:40   54.4    55    1.3    41      2.8   833.3    8.47      98    999.0
 108   17:50   54.4    55    1.3   233      4.2   833.2    8.47      46    999.0
 108   18:00   54.1    54    1.6   241      4.9   833.2    8.47      29    999.0
 108   18:10   53.1    56    1.0   197      3.2   833.6    8.47      22    999.0
 108   18:20   52.1    62    0.4    18      1.8   833.5    8.47      13    999.0
 108   18:30   51.0    64    0.0     0      0.0   833.4    8.47       7    999.0
 108   18:40   49.6    67    0.0     0      0.0   833.6    8.47       3    999.0
 108   18:50   48.0    71    0.4   268      0.7   833.5    8.47       1    999.0
 108   19:00   46.6    74    0.2   245      1.2   833.4    8.47       0    999.0
 108   19:10   45.4    77    0.3   231      0.9   833.8    8.47       0    999.0
 108   19:20   44.5    79    0.4   193      1.5   834.0    8.47       0    999.0
 108   19:30   43.8    80    0.2   194      0.9   834.2    8.47       0    999.0
 108   19:40   43.2    81    0.7   272      1.7   833.8    8.47       0    999.0
 108   19:50   42.8    81    0.5   236      1.0   833.9    8.47       0    999.0
 108   20:00   42.0    82    0.4   213      1.4   834.0    8.47       0    999.0
 108   20:10   41.3    82    0.4   249      1.3   834.3    8.47       0    999.0
 108   20:20   40.7    83    0.1   227      0.6   834.3    8.47       0    999.0
 108   20:30   40.1    84    0.2   259      1.2   834.3    8.47       0    999.0
 108   20:40   39.4    84    0.0     0      0.0   834.3    8.47       0    999.0
 108   20:50   39.0    86    0.2   270      0.6   834.2    8.47       0    999.0
 108   21:00   38.7    86    0.2   250      0.9   834.1    8.47       0    999.0
 108   21:10   38.0    87    0.1    89      0.9   834.5    8.47       0    999.0
 108   21:20   37.4    88    0.5   269      1.2   834.4    8.47       0    999.0
 108   21:30   37.1    88    0.2   259      1.1   834.4    8.47       0    999.0
 108   21:40   36.6    89    0.2   168      1.1   834.2    8.47       0    999.0
 108   21:50   36.1    90    0.0     0      0.0   834.5    8.47       0    999.0
 108   22:00   35.8    90    0.2   263      0.8   834.7    8.47       0    999.0
 108   22:10   35.8    91    1.2   205      2.3   834.4    8.47       0    999.0
 108   22:20   35.6    91    0.1   243      0.6   834.7    8.47       0    999.0
 108   22:30   35.3    91    0.1   253      0.7   834.9    8.47       0    999.0
 108   22:40   35.0    91    0.2   252      0.6   834.8    8.47       0    999.0
 108   22:50   34.6    91    0.3   263      0.8   834.8    8.47       0    999.0
 108   23:00   34.2    91    0.1   218      0.8   834.8    8.47       0    999.0
 108   23:10   33.8    92    0.4   255      0.9   834.3    8.47       0    999.0
 108   23:20   33.3    92    0.1   238      0.8   834.5    8.47       0    999.0
 108   23:30   32.9    92    0.1   262      0.5   834.7    8.47       0    999.0
 108   23:40   32.5    92    0.4   250      1.1   834.4    8.47       0    999.0
 108   23:50   32.1    92    0.1   208      1.0   834.5    8.47       0    999.0
 109    0:00   31.8    93    0.7   257      1.4   834.6    8.47       0    999.0
 109    0:10   31.6    93    0.2   261      1.1   834.8    8.47       0    999.0
 109    0:20   31.4    93    0.5   239      1.1   834.6    8.47       0    999.0
 109    0:30   31.1    93    0.3   259      0.9   834.4    8.47       0    999.0
 109    0:40   30.9    93    0.7   249      1.3   834.4    8.47       0    999.0
 109    0:50   30.9    93    0.3   230      1.0   834.4    8.47       0    999.0
 109    1:00   30.7    94    0.3   280      1.0   834.4    8.47       0    999.0
 109    1:10   30.4    94    0.3   247      1.0   834.5    8.47       0    999.0
 109    1:20   30.1    93    0.3   263      1.2   834.4    8.47       0    999.0
 109    1:30   29.8    94    0.6   270      1.6   834.3    8.47       0    999.0
 109    1:40   29.6    94    0.2   262      0.8   834.3    8.47       0    999.0
 109    1:50   29.3    94    0.6   269      1.4   834.3    8.47       0    999.0
 109    2:00   29.1    94    0.6   258      1.1   834.3    8.47       0    999.0
 109    2:10   28.9    94    0.3   274      1.1   834.5    8.47       0    999.0
 109    2:20   28.6    94    0.5   244      1.1   834.5    8.47       0    999.0
 109    2:30   28.5    94    0.4   289      1.1   834.4    8.47       0    999.0
 109    2:40   28.3    94    0.3   274      1.1   834.5    8.47       0    999.0
 109    2:50   28.2    94    0.5   270      1.1   834.5    8.47       0    999.0
 109    3:00   28.0    94    0.1   266      0.9   834.6    8.47       0    999.0
 109    3:10   27.9    94    0.3   282      1.0   834.1    8.47       0    999.0
 109    3:20   27.9    94    0.4   272      0.8   834.4    8.47       0    999.0
 109    3:30   28.0    94    0.5   273      1.0   834.7    8.47       0    999.0
 109    3:40   28.1    94    0.4   269      1.2   834.7    8.47       0    999.0
 109    3:50   28.2    94    0.6   239      1.5   834.4    8.47       0    999.0
 109    4:00   28.3    94    0.2   272      1.2   834.2    8.47       0    999.0
 109    4:10   28.3    94    0.2   267      0.7   834.7    8.47       0    999.0
 109    4:20   28.3    94    0.1   273      0.7   834.6    8.47       0    999.0
 109    4:30   28.2    94    0.7   235      1.6   834.5    8.47       0    999.0
 109    4:40   28.2    94    0.5   212      1.9   834.5    8.47       0    999.0
 109    4:50   28.3    94    0.2   295      1.1   834.5    8.47       0    999.0
 109    5:00   28.2    94    0.8   253      1.8   834.5    8.47       0    999.0
 109    5:10   28.0    94    0.0   161      0.3   834.8    8.47       0    999.0
 109    5:20   27.8    94    0.1   280      0.6   834.6    8.47       1    999.0
 109    5:30   27.7    94    0.2   263      0.6   834.5    8.47       4    999.0
 109    5:40   27.7    94    0.1   295      0.8   834.8    8.47       9    999.0
 109    5:50   27.8    94    0.1   280      0.8   834.8    8.47      17    999.0
 109    6:00   28.0    94    0.2   277      0.9   834.9    8.47      37    999.0
 109    6:10   28.8    94    0.0     0      0.0   835.0    8.47      96    999.0
 109    6:20   29.9    94    0.4   272      1.3   834.8    8.47     133    999.0
 109    6:30   31.3    91    0.0     0      0.0   834.7    8.47     166    999.0
 109    6:40   32.4    89    0.3   310      1.6   835.3    8.47     175    999.0
 109    6:50   33.1    88    0.2     3      1.5   835.2    8.47     179    999.0
 109    7:00   34.3    87    0.2   349      1.5   835.2    8.47     208    999.0
 109    7:10   36.2    86    0.5    85      2.6   834.8    8.47     309    999.0
 109    7:20   38.8    82    0.6    42      2.7   834.8    8.47     286    999.0
 109    7:30   40.6    81    1.1    83      3.4   834.8    8.47     370    999.0
 109    7:40   43.6    77    1.3    91      4.0   835.3    8.47     409    999.0
 109    7:50   47.0    68    1.9   242      6.3   835.1    8.47     441    999.0
 109    8:00   49.5    64    0.8    50      3.2   835.0    8.47     471    999.0
 109    8:10   47.1    39    1.2   283      2.4     0.0    8.47     512    999.0
 109    8:20   52.4    47    1.4   294      3.6   431.4    8.47     534    999.0
 109    8:30   52.8    46    2.5   152      7.7   834.9    8.47     569    999.0
 109    8:40   52.8    43    2.9   158      8.4   835.3    8.47     598    999.0
 109    8:50   53.6    41    2.3   139      5.0   835.4    8.47     636    999.0
 109    9:00   55.4    36    2.6   140      6.3   835.5    8.47     643    999.0
 109    9:10   55.9    33    2.5   119      5.1   835.4    8.47     662    999.0
 109    9:20   55.9    34    2.7   174      6.1   835.6    8.47     695    999.0
 109    9:30   41.5    10    3.8   299      5.3   104.5    8.47     733    999.0
 109    9:40   56.3    29    3.6   289      8.9   835.7    8.46     733    999.0
 109    9:50   57.2    28    2.5   294      5.6   835.7    8.46     771    999.0
 109   10:00   57.5    27    3.1   285      7.4   835.7    8.46     789    999.0
 109   10:10   58.1    24    3.6   250      9.8   836.0    8.46     764    999.0
 109   10:20  999.0   999  999.0   999    999.0   999.0   999.00     999    999.0
 109   10:30   57.0    23    3.3   276      8.8    14.2    8.46     800    999.0
 109   10:40   58.6    25    3.4   271      7.0   835.5    8.46     830    999.0
 109   10:50   59.6    24    2.4   246      5.2   835.5    8.46     840    999.0
 109   11:00   59.6    23    2.8   298      5.7   835.5    8.46     751    999.0
 109   11:10   59.3    23    2.9   250      6.8   835.8    8.46     792    999.0
 109   11:20   59.3    22    3.9   260     10.1   835.8    8.46     823    999.0
 109   11:30   58.8    22    3.7   281     10.2   835.8    8.46     902    999.0
 109   11:40   43.8    10    3.3   262      7.6     0.0    8.46     903    999.0
 109   11:50   59.0    23    3.3   215     10.0   431.9    8.46     907    999.0
 109   12:00   60.0    22    3.5   242      8.0   835.9    8.46     928    999.0

Return to Sagehen Creek graphs page.


Western Regional Climate Center,wrcc@dri.edu